createdAt,value
2022-09-21T00:01:24.889Z,102439.91
2022-09-21T00:03:58.909Z,102431.44
2022-09-21T00:06:35.416Z,102432.19
2022-09-21T00:09:04.058Z,102427.59
2022-09-21T00:11:31.445Z,102428.69
2022-09-21T00:14:08.137Z,102432.81
2022-09-21T00:16:35.090Z,102436.69
2022-09-21T00:19:02.100Z,102433.66
2022-09-21T00:21:29.836Z,102440.13
2022-09-21T00:23:57.243Z,102434.78
2022-09-21T00:26:25.889Z,102437.44
2022-09-21T00:29:00.691Z,102440.44
2022-09-21T00:31:28.655Z,102438.84
2022-09-21T00:33:56.528Z,102436.88
2022-09-21T00:36:24.977Z,102439.50
2022-09-21T00:38:56.749Z,102434.09
2022-09-21T00:41:24.228Z,102441.69
2022-09-21T00:44:27.465Z,102439.34
2022-09-21T00:46:57.325Z,102439.25
2022-09-21T00:49:24.537Z,102433.94
2022-09-21T00:51:58.791Z,102442.38
2022-09-21T00:54:31.258Z,102441.16
2022-09-21T00:57:03.176Z,102440.03
2022-09-21T00:59:38.615Z,102436.31
2022-09-21T01:02:05.504Z,102439.34
2022-09-21T01:04:41.393Z,102444.34
2022-09-21T01:07:12.504Z,102442.50
2022-09-21T01:09:41.035Z,102443.91
2022-09-21T01:12:24.768Z,102450.09
2022-09-21T01:15:14.542Z,102443.97
2022-09-21T01:17:44.081Z,102442.50
2022-09-21T01:20:35.156Z,102440.16
2022-09-21T01:23:19.516Z,102443.97
2022-09-21T01:26:12.029Z,102447.69
2022-09-21T01:28:56.917Z,102451.00
2022-09-21T01:31:34.756Z,102449.09
2022-09-21T01:34:08.300Z,102446.81
2022-09-21T01:36:35.145Z,102441.53
2022-09-21T01:39:14.502Z,102452.91
2022-09-21T01:41:42.618Z,102454.50
2022-09-21T01:44:14.754Z,102450.63
2022-09-21T01:46:42.525Z,102445.31
2022-09-21T01:49:11.909Z,102455.16
2022-09-21T01:51:43.619Z,102452.06
2022-09-21T01:54:14.066Z,102453.50
2022-09-21T01:56:44.692Z,102449.25
2022-09-21T01:59:17.022Z,102445.03
2022-09-21T02:01:53.668Z,102443.50
2022-09-21T02:04:20.155Z,102449.59
2022-09-21T02:06:47.749Z,102457.59
2022-09-21T02:09:14.532Z,102452.19
2022-09-21T02:11:43.906Z,102460.16
2022-09-21T02:14:17.080Z,102452.88
2022-09-21T02:16:55.340Z,102455.44
2022-09-21T02:19:45.121Z,102458.97
2022-09-21T02:22:21.967Z,102460.56
2022-09-21T02:24:53.341Z,102459.31
2022-09-21T02:27:36.416Z,102465.47
2022-09-21T02:30:08.926Z,102460.06
2022-09-21T02:32:51.602Z,102458.56
2022-09-21T02:35:33.254Z,102459.31
2022-09-21T02:38:20.261Z,102455.34
2022-09-21T02:40:54.089Z,102456.09
2022-09-21T02:43:45.391Z,102451.38
2022-09-21T02:46:27.691Z,102452.00
2022-09-21T02:48:57.612Z,102455.03
2022-09-21T02:51:37.412Z,102451.81
2022-09-21T02:54:04.932Z,102456.41
2022-09-21T02:56:31.427Z,102451.88
2022-09-21T02:59:02.088Z,102463.28
2022-09-21T03:01:29.301Z,102459.50
2022-09-21T03:03:55.729Z,102453.34
2022-09-21T03:06:22.137Z,102451.06
2022-09-21T03:08:48.807Z,102453.34
2022-09-21T03:11:19.342Z,102460.16
2022-09-21T03:13:46.093Z,102471.56
2022-09-21T03:16:12.950Z,102463.97
2022-09-21T03:18:40.336Z,102454.38
2022-09-21T03:21:07.163Z,102467.78
2022-09-21T03:23:33.559Z,102461.66
2022-09-21T03:26:00.030Z,102460.78
2022-09-21T03:28:26.658Z,102462.25
2022-09-21T03:30:53.145Z,102463.66
2022-09-21T03:33:20.985Z,102470.53
2022-09-21T03:35:50.921Z,102468.91
2022-09-21T03:38:18.193Z,102472.66
2022-09-21T03:40:46.225Z,102468.81
2022-09-21T03:43:13.178Z,102472.31
2022-09-21T03:45:42.012Z,102484.88
2022-09-21T03:48:09.474Z,102476.84
2022-09-21T03:50:35.970Z,102476.53
2022-09-21T03:53:02.541Z,102474.97
2022-09-21T03:55:29.808Z,102475.75
2022-09-21T03:57:56.218Z,102480.31
2022-09-21T04:00:22.629Z,102473.44
2022-09-21T04:02:49.099Z,102480.31
2022-09-21T04:05:16.324Z,102481.88
2022-09-21T04:07:45.664Z,102486.41
2022-09-21T04:10:14.701Z,102478.69
2022-09-21T04:12:43.322Z,102481.34
2022-09-21T04:15:14.842Z,102482.19
2022-09-21T04:17:41.227Z,102478.03
2022-09-21T04:20:08.948Z,102481.88
2022-09-21T04:22:39.949Z,102478.78
2022-09-21T04:25:10.438Z,102474.00
2022-09-21T04:27:37.021Z,102484.19
2022-09-21T04:30:03.872Z,102482.22
2022-09-21T04:32:30.241Z,102476.13
2022-09-21T04:34:56.695Z,102477.16
2022-09-21T04:37:23.087Z,102474.09
2022-09-21T04:39:49.562Z,102476.97
2022-09-21T04:42:15.950Z,102474.13
2022-09-21T04:44:42.383Z,102477.06
2022-09-21T04:47:08.789Z,102480.47
2022-09-21T04:49:35.219Z,102485.81
2022-09-21T04:52:01.817Z,102490.69
2022-09-21T04:54:28.220Z,102488.72
2022-09-21T04:56:54.754Z,102483.41
2022-09-21T04:59:21.301Z,102488.34
2022-09-21T05:01:47.739Z,102489.25
2022-09-21T05:04:14.250Z,102490.69
2022-09-21T05:06:40.672Z,102491.09
2022-09-21T05:09:25.804Z,102493.03
2022-09-21T05:11:52.887Z,102497.31
2022-09-21T05:14:19.285Z,102492.91
2022-09-21T05:16:49.926Z,102489.22
2022-09-21T05:19:17.228Z,102506.63
2022-09-21T05:21:43.794Z,102501.22
2022-09-21T05:24:10.345Z,102506.63
2022-09-21T05:26:37.821Z,102507.88
2022-09-21T05:29:04.831Z,102506.50
2022-09-21T05:31:46.127Z,102511.16
2022-09-21T05:34:25.186Z,102514.16
2022-09-21T05:36:58.543Z,102508.72
2022-09-21T05:39:25.202Z,102518.78
2022-09-21T05:41:51.760Z,102513.59
2022-09-21T05:44:18.375Z,102522.47
2022-09-21T05:47:11.579Z,102528.31
2022-09-21T05:50:15.648Z,102527.41
2022-09-21T05:52:58.800Z,102519.22
2022-09-21T05:55:33.792Z,102515.88
2022-09-21T05:58:37.791Z,102525.63
2022-09-21T06:01:23.607Z,102527.88
2022-09-21T06:03:50.292Z,102518.72
2022-09-21T06:06:18.307Z,102518.06
2022-09-21T06:08:44.672Z,102522.41
2022-09-21T06:11:11.442Z,102528.47
2022-09-21T06:13:38.095Z,102532.03
2022-09-21T06:16:04.803Z,102529.03
2022-09-21T06:18:31.339Z,102532.19
2022-09-21T06:20:57.756Z,102534.53
2022-09-21T06:23:24.219Z,102540.78
2022-09-21T06:25:58.189Z,102544.31
2022-09-21T06:28:25.171Z,102538.00
2022-09-21T06:30:53.213Z,102538.19
2022-09-21T06:33:23.636Z,102536.31
2022-09-21T06:35:54.810Z,102541.81
2022-09-21T06:38:21.677Z,102539.97
2022-09-21T06:40:48.180Z,102535.13
2022-09-21T06:43:14.688Z,102538.56
2022-09-21T06:45:41.290Z,102546.38
2022-09-21T06:48:08.062Z,102546.44
2022-09-21T06:50:34.919Z,102541.97
2022-09-21T06:53:02.556Z,102544.41
2022-09-21T06:55:30.120Z,102545.97
2022-09-21T06:58:01.881Z,102549.53
2022-09-21T07:00:28.636Z,102549.94
2022-09-21T07:02:55.170Z,102553.84
2022-09-21T07:05:21.566Z,102560.03
2022-09-21T07:07:53.271Z,102557.78
2022-09-21T07:10:20.822Z,102555.59
2022-09-21T07:12:47.510Z,102559.47
2022-09-21T07:15:15.511Z,102552.28
2022-09-21T07:17:51.809Z,102560.34
2022-09-21T07:20:18.771Z,102557.00
2022-09-21T07:22:45.203Z,102558.88
2022-09-21T07:25:11.806Z,102565.81
2022-09-21T07:27:38.311Z,102567.75
2022-09-21T07:30:05.645Z,102574.97
2022-09-21T07:32:33.805Z,102565.41
2022-09-21T07:35:04.290Z,102570.34
2022-09-21T07:37:38.709Z,102568.72
2022-09-21T07:40:11.063Z,102576.72
2022-09-21T07:42:40.888Z,102576.59
2022-09-21T07:45:11.253Z,102571.56
2022-09-21T07:47:42.487Z,102580.91
2022-09-21T07:50:12.414Z,102571.22
2022-09-21T07:52:45.287Z,102580.41
2022-09-21T07:55:19.961Z,102571.59
2022-09-21T07:58:15.422Z,102578.63
2022-09-21T08:00:44.727Z,102586.91
2022-09-21T08:03:15.072Z,102580.63
2022-09-21T08:05:41.800Z,102584.72
2022-09-21T08:08:09.022Z,102585.38
2022-09-21T08:10:36.073Z,102587.78
2022-09-21T08:13:02.710Z,102580.06
2022-09-21T08:15:48.779Z,102583.31
2022-09-21T08:18:15.552Z,102588.47
2022-09-21T08:20:42.299Z,102599.50
2022-09-21T08:23:08.691Z,102593.91
2022-09-21T08:25:35.362Z,102586.88
2022-09-21T08:28:06.117Z,102588.47
2022-09-21T08:30:35.378Z,102593.63
2022-09-21T08:33:02.374Z,102587.94
2022-09-21T08:35:28.948Z,102598.22
2022-09-21T08:37:55.422Z,102595.97
2022-09-21T08:40:22.044Z,102600.44
2022-09-21T08:43:43.349Z,102597.31
2022-09-21T08:46:15.486Z,102605.53
2022-09-21T08:48:54.301Z,102599.72
2022-09-21T08:51:23.801Z,102598.09
2022-09-21T08:53:52.981Z,102602.09
2022-09-21T08:56:20.571Z,102596.94
2022-09-21T08:58:47.008Z,102606.06
2022-09-21T09:01:44.653Z,102607.97
2022-09-21T09:04:13.960Z,102601.75
2022-09-21T09:06:58.557Z,102601.09
2022-09-21T09:09:44.511Z,102606.63
2022-09-21T09:12:35.980Z,102609.44
2022-09-21T09:15:17.632Z,102610.88
2022-09-21T09:17:56.411Z,102608.19
2022-09-21T09:20:31.539Z,102603.59
2022-09-21T09:23:13.061Z,102608.09
2022-09-21T09:25:41.828Z,102603.59
2022-09-21T09:28:24.703Z,102601.50
2022-09-21T09:31:01.549Z,102606.31
2022-09-21T09:33:38.174Z,102602.09
2022-09-21T09:36:09.890Z,102606.63
2022-09-21T09:38:49.138Z,102608.28
2022-09-21T09:41:46.553Z,102601.84
2022-09-21T09:44:31.725Z,102606.88
2022-09-21T09:47:27.941Z,102599.94
2022-09-21T09:50:06.720Z,102603.97
2022-09-21T09:52:33.434Z,102596.06
2022-09-21T09:55:00.744Z,102600.78
2022-09-21T09:57:31.740Z,102595.84
2022-09-21T10:00:01.337Z,102610.56
2022-09-21T10:02:29.303Z,102611.03
2022-09-21T10:05:18.294Z,102595.84
2022-09-21T10:07:48.811Z,102609.97
2022-09-21T10:10:33.653Z,102604.47
2022-09-21T10:13:33.400Z,102615.41
2022-09-21T10:16:18.210Z,102611.41
2022-09-21T10:18:58.866Z,102603.31
2022-09-21T10:21:39.799Z,102610.88
2022-09-21T10:24:08.163Z,102607.00
2022-09-21T10:26:54.514Z,102609.06
2022-09-21T10:29:23.911Z,102604.84
2022-09-21T10:31:58.163Z,102606.44
2022-09-21T10:34:27.311Z,102609.13
2022-09-21T10:36:56.169Z,102613.81
2022-09-21T10:39:32.962Z,102604.69
2022-09-21T10:42:03.595Z,102604.59
2022-09-21T10:44:37.626Z,102603.41
2022-09-21T10:47:16.921Z,102607.06
2022-09-21T10:49:47.190Z,102602.88
2022-09-21T10:52:13.976Z,102601.78
2022-09-21T10:54:41.551Z,102602.25
2022-09-21T10:57:09.916Z,102594.75
2022-09-21T10:59:37.294Z,102601.69
2022-09-21T11:02:23.726Z,102590.75
2022-09-21T11:04:54.262Z,102595.78
2022-09-21T11:07:29.220Z,102594.56
2022-09-21T11:10:16.940Z,102599.78
2022-09-21T11:12:59.594Z,102598.97
2022-09-21T11:15:52.232Z,102594.91
2022-09-21T11:18:35.864Z,102586.50
2022-09-21T11:21:13.653Z,102593.25
2022-09-21T11:24:03.416Z,102592.50
2022-09-21T11:26:51.897Z,102591.75
2022-09-21T11:29:23.283Z,102579.31
2022-09-21T11:32:05.870Z,102582.53
2022-09-21T11:35:01.749Z,102585.22
2022-09-21T11:38:06.042Z,102586.44
2022-09-21T11:40:32.833Z,102588.84
2022-09-21T11:43:25.038Z,102579.06
2022-09-21T11:45:58.880Z,102588.34
2022-09-21T11:49:02.748Z,102581.59
2022-09-21T11:51:41.459Z,102578.59
2022-09-21T11:54:24.067Z,102571.53
2022-09-21T11:56:56.037Z,102581.69
2022-09-21T11:59:38.785Z,102577.13
2022-09-21T12:02:26.778Z,102582.97
2022-09-21T12:05:04.352Z,102576.13
2022-09-21T12:07:42.871Z,102578.63
2022-09-21T12:10:33.539Z,102573.69
2022-09-21T12:13:08.247Z,102575.63
2022-09-21T12:15:38.195Z,102570.88
2022-09-21T12:18:41.422Z,102574.38
2022-09-21T12:21:26.668Z,102564.63
2022-09-21T12:23:56.330Z,102559.19
2022-09-21T12:26:29.944Z,102554.13
2022-09-21T12:29:00.996Z,102560.53
2022-09-21T12:31:35.985Z,102560.28
2022-09-21T12:34:24.863Z,102564.53
2022-09-21T12:37:08.711Z,102555.72
2022-09-21T12:39:56.363Z,102561.22
2022-09-21T12:43:03.721Z,102556.34
2022-09-21T12:45:34.007Z,102554.38
2022-09-21T12:48:04.451Z,102549.28
2022-09-21T12:50:48.641Z,102549.91
2022-09-21T12:53:22.281Z,102541.13
2022-09-21T12:56:06.504Z,102547.09
2022-09-21T12:58:51.385Z,102548.22
2022-09-21T13:01:31.357Z,102545.28
2022-09-21T13:04:13.191Z,102550.38
2022-09-21T13:06:56.703Z,102537.53
2022-09-21T13:09:24.098Z,102541.69
2022-09-21T13:11:56.917Z,102528.94
2022-09-21T13:14:34.704Z,102530.97
2022-09-21T13:17:03.026Z,102529.69
2022-09-21T13:19:32.849Z,102529.25
2022-09-21T13:22:19.823Z,102521.31
2022-09-21T13:25:02.914Z,102519.28
2022-09-21T13:28:00.725Z,102521.66
2022-09-21T13:30:36.164Z,102525.50
2022-09-21T13:33:05.167Z,102522.38
2022-09-21T13:36:02.643Z,102521.56
2022-09-21T13:38:41.269Z,102527.69
2022-09-21T13:41:19.780Z,102519.75
2022-09-21T13:44:04.366Z,102518.31
2022-09-21T13:46:34.810Z,102510.34
2022-09-21T13:49:13.897Z,102509.13
2022-09-21T13:52:05.885Z,102515.69
2022-09-21T13:54:35.278Z,102515.31
2022-09-21T13:57:16.302Z,102516.66
2022-09-21T13:59:44.547Z,102510.19
2022-09-21T14:02:35.256Z,102507.66
2022-09-21T14:05:31.439Z,102516.38
2022-09-21T14:08:00.143Z,102521.25
2022-09-21T14:10:35.779Z,102510.06
2022-09-21T14:13:07.393Z,102508.13
2022-09-21T14:15:36.851Z,102505.38
2022-09-21T14:18:16.240Z,102512.19
2022-09-21T14:21:08.330Z,102505.84
2022-09-21T14:23:36.547Z,102495.72
2022-09-21T14:26:20.722Z,102492.41
2022-09-21T14:28:51.633Z,102495.31
2022-09-21T14:31:26.265Z,102507.22
2022-09-21T14:33:57.718Z,102488.66
2022-09-21T14:36:41.443Z,102496.22
2022-09-21T14:39:17.628Z,102489.88
2022-09-21T14:41:45.989Z,102487.44
2022-09-21T14:44:21.853Z,102490.16
2022-09-21T14:47:11.259Z,102489.91
2022-09-21T14:50:15.058Z,102483.47
2022-09-21T14:52:53.052Z,102478.59
2022-09-21T14:55:31.728Z,102478.66
2022-09-21T14:58:36.794Z,102481.16
2022-09-21T15:01:22.168Z,102475.31
2022-09-21T15:04:16.575Z,102484.06
2022-09-21T15:07:17.003Z,102467.38
2022-09-21T15:10:35.725Z,102465.16
2022-09-21T15:13:11.902Z,102464.03
2022-09-21T15:15:51.660Z,102473.63
2022-09-21T15:18:22.502Z,102456.09
2022-09-21T15:21:02.271Z,102458.50
2022-09-21T15:23:31.867Z,102457.22
2022-09-21T15:26:09.039Z,102446.41
2022-09-21T15:29:07.848Z,102456.28
2022-09-21T15:31:48.856Z,102452.44
2022-09-21T15:34:15.389Z,102446.38
2022-09-21T15:36:43.053Z,102444.34
2022-09-21T15:39:28.363Z,102441.31
2022-09-21T15:42:10.255Z,102446.97
2022-09-21T15:44:38.335Z,102436.78
2022-09-21T15:47:09.074Z,102441.56
2022-09-21T15:49:35.879Z,102439.38
2022-09-21T15:52:13.777Z,102439.88
2022-09-21T15:54:42.582Z,102443.09
2022-09-21T15:57:38.412Z,102450.06
2022-09-21T16:00:08.311Z,102443.88
2022-09-21T16:02:37.843Z,102450.81
2022-09-21T16:05:05.552Z,102452.13
2022-09-21T16:07:37.052Z,102456.13
2022-09-21T16:10:34.555Z,102457.44
2022-09-21T16:13:38.760Z,102454.38
2022-09-21T16:16:12.040Z,102448.88
2022-09-21T16:18:46.251Z,102451.56
2022-09-21T16:21:23.847Z,102449.31
2022-09-21T16:23:52.768Z,102449.94
2022-09-21T16:26:22.859Z,102441.47
2022-09-21T16:28:49.955Z,102439.16
2022-09-21T16:31:28.818Z,102442.97
2022-09-21T16:33:55.402Z,102446.91
2022-09-21T16:36:34.547Z,102438.69
2022-09-21T16:39:05.963Z,102442.97
2022-09-21T16:41:41.333Z,102445.88
2022-09-21T16:44:15.440Z,102449.84
2022-09-21T16:46:43.971Z,102452.59
2022-09-21T16:49:16.777Z,102449.91
2022-09-21T16:51:43.201Z,102439.63
2022-09-21T16:54:09.745Z,102444.50
2022-09-21T16:56:36.223Z,102445.31
2022-09-21T16:59:10.411Z,102446.84
2022-09-21T17:01:36.901Z,102444.50
2022-09-21T17:04:03.305Z,102449.09
2022-09-21T17:06:30.693Z,102443.97
2022-09-21T17:08:57.143Z,102445.16
2022-09-21T17:11:24.067Z,102441.47
2022-09-21T17:13:50.840Z,102438.19
2022-09-21T17:16:18.713Z,102440.28
2022-09-21T17:18:46.561Z,102443.69
2022-09-21T17:21:13.749Z,102436.22
2022-09-21T17:23:41.285Z,102437.59
2022-09-21T17:26:17.539Z,102438.88
2022-09-21T17:28:44.657Z,102437.47
2022-09-21T17:31:16.495Z,102433.00
2022-09-21T17:33:43.798Z,102428.16
2022-09-21T17:36:14.364Z,102432.53
2022-09-21T17:38:42.356Z,102428.81
2022-09-21T17:41:34.789Z,102434.31
2022-09-21T17:44:14.014Z,102424.34
2022-09-21T17:46:47.946Z,102430.22
2022-09-21T17:49:14.625Z,102432.69
2022-09-21T17:52:00.164Z,102427.75
2022-09-21T17:54:26.935Z,102431.00
2022-09-21T17:56:59.545Z,102431.50
2022-09-21T17:59:37.432Z,102433.09
2022-09-21T18:02:24.390Z,102432.81
2022-09-21T18:04:56.032Z,102432.91
2022-09-21T18:07:25.193Z,102435.63
2022-09-21T18:09:52.109Z,102444.13
2022-09-21T18:12:50.138Z,102439.25
2022-09-21T18:15:27.674Z,102431.22
2022-09-21T18:18:12.875Z,102442.38
2022-09-21T18:21:02.273Z,102437.09
2022-09-21T18:23:54.920Z,102437.50
2022-09-21T18:26:23.384Z,102435.59
2022-09-21T18:28:57.916Z,102434.03
2022-09-21T18:31:50.269Z,102438.31
2022-09-21T18:34:16.563Z,102434.09
2022-09-21T18:36:48.916Z,102424.91
2022-09-21T18:39:26.079Z,102440.97
2022-09-21T18:42:19.777Z,102435.63
2022-09-21T18:45:14.340Z,102439.41
2022-09-21T18:48:12.719Z,102437.84
2022-09-21T18:50:48.270Z,102439.34
2022-09-21T18:53:24.414Z,102436.31
2022-09-21T18:55:52.111Z,102435.53
2022-09-21T18:58:18.897Z,102444.75
2022-09-21T19:00:45.458Z,102433.34
2022-09-21T19:03:19.041Z,102433.78
2022-09-21T19:06:06.081Z,102438.78
2022-09-21T19:08:54.850Z,102443.38
2022-09-21T19:11:34.744Z,102438.03
2022-09-21T19:14:24.250Z,102443.38
2022-09-21T19:16:58.741Z,102434.22
2022-09-21T19:19:44.017Z,102439.97
2022-09-21T19:22:35.721Z,102440.75
2022-09-21T19:25:25.626Z,102435.81
2022-09-21T19:28:00.394Z,102433.13
2022-09-21T19:30:27.119Z,102437.69
2022-09-21T19:32:58.490Z,102431.94
2022-09-21T19:35:27.667Z,102439.63
2022-09-21T19:37:56.761Z,102443.81
2022-09-21T19:40:27.635Z,102438.88
2022-09-21T19:43:20.637Z,102439.63
2022-09-21T19:46:05.921Z,102436.59
2022-09-21T19:48:43.099Z,102433.13
2022-09-21T19:51:38.854Z,102441.16
2022-09-21T19:54:31.947Z,102436.56
2022-09-21T19:57:17.572Z,102436.56
2022-09-21T19:59:44.413Z,102431.94
2022-09-21T20:02:15.515Z,102433.88
2022-09-21T20:04:52.490Z,102438.09
2022-09-21T20:07:36.209Z,102438.06
2022-09-21T20:10:22.176Z,102422.00
2022-09-21T20:13:04.909Z,102435.00
2022-09-21T20:15:37.037Z,102438.09
2022-09-21T20:18:10.287Z,102434.97
2022-09-21T20:20:38.064Z,102445.28
2022-09-21T20:23:04.918Z,102442.25
2022-09-21T20:25:34.993Z,102444.53
2022-09-21T20:28:03.796Z,102445.66
2022-09-21T20:30:33.370Z,102444.09
2022-09-21T20:33:10.771Z,102449.09
2022-09-21T20:35:37.204Z,102446.75
2022-09-21T20:38:04.602Z,102447.50
2022-09-21T20:40:32.113Z,102442.53
2022-09-21T20:43:01.062Z,102443.28
2022-09-21T20:45:28.379Z,102447.53
2022-09-21T20:47:55.375Z,102450.91
2022-09-21T20:50:26.703Z,102444.03
2022-09-21T20:52:53.117Z,102441.69
2022-09-21T20:55:20.358Z,102444.72
2022-09-21T20:57:46.884Z,102439.38
2022-09-21T21:00:15.154Z,102436.66
2022-09-21T21:02:41.960Z,102442.41
2022-09-21T21:05:10.375Z,102445.81
2022-09-21T21:07:36.883Z,102428.66
2022-09-21T21:10:03.983Z,102441.63
2022-09-21T21:12:30.931Z,102452.31
2022-09-21T21:14:59.123Z,102447.69
2022-09-21T21:17:25.619Z,102443.44
2022-09-21T21:19:52.133Z,102440.06
2022-09-21T21:22:18.571Z,102441.19
2022-09-21T21:24:45.110Z,102445.78
2022-09-21T21:27:17.179Z,102451.94
2022-09-21T21:29:46.339Z,102448.47
2022-09-21T21:32:14.396Z,102446.50
2022-09-21T21:34:40.995Z,102449.88
2022-09-21T21:37:07.588Z,102448.31
2022-09-21T21:39:33.983Z,102449.94
2022-09-21T21:42:00.414Z,102440.72
2022-09-21T21:44:27.122Z,102446.06
2022-09-21T21:46:53.874Z,102451.41
2022-09-21T21:49:21.016Z,102440.69
2022-09-21T21:51:49.259Z,102447.50
2022-09-21T21:54:18.307Z,102446.00
2022-09-21T21:56:45.730Z,102442.97
2022-09-21T21:59:17.433Z,102445.28
2022-09-21T22:01:44.326Z,102441.03
2022-09-21T22:04:10.874Z,102450.16
2022-09-21T22:06:39.136Z,102447.84
2022-09-21T22:09:09.358Z,102450.13
2022-09-21T22:11:36.136Z,102439.09
2022-09-21T22:14:03.742Z,102445.97
2022-09-21T22:16:31.930Z,102441.38
2022-09-21T22:18:58.753Z,102444.38
2022-09-21T22:21:28.132Z,102450.06
2022-09-21T22:24:00.192Z,102452.75
2022-09-21T22:26:27.931Z,102437.84
2022-09-21T22:28:56.494Z,102442.84
2022-09-21T22:31:26.430Z,102438.66
2022-09-21T22:33:53.887Z,102444.38
2022-09-21T22:36:24.560Z,102440.56
2022-09-21T22:38:51.017Z,102439.78
2022-09-21T22:41:19.479Z,102452.72
2022-09-21T22:43:46.895Z,102450.75
2022-09-21T22:46:14.262Z,102444.19
2022-09-21T22:48:40.718Z,102450.31
2022-09-21T22:51:07.271Z,102441.25
2022-09-21T22:53:33.687Z,102451.13
2022-09-21T22:56:01.444Z,102438.16
2022-09-21T22:58:27.860Z,102439.66
2022-09-21T23:01:24.997Z,102437.28
2022-09-21T23:03:54.697Z,102438.47
2022-09-21T23:06:22.848Z,102438.84
2022-09-21T23:08:50.519Z,102438.03
2022-09-21T23:11:31.787Z,102440.66
2022-09-21T23:13:59.424Z,102435.31
2022-09-21T23:16:27.524Z,102433.38
2022-09-21T23:18:54.294Z,102431.78
2022-09-21T23:21:22.864Z,102432.22
2022-09-21T23:23:49.474Z,102429.56
2022-09-21T23:26:24.068Z,102432.59
2022-09-21T23:28:52.507Z,102429.19
2022-09-21T23:31:19.522Z,102424.28
2022-09-21T23:33:48.271Z,102432.69
2022-09-21T23:36:16.672Z,102426.22
2022-09-21T23:38:43.674Z,102420.50
2022-09-21T23:41:18.552Z,102427.34
2022-09-21T23:43:45.924Z,102425.00
2022-09-21T23:46:14.929Z,102421.94
2022-09-21T23:48:41.825Z,102421.16
2022-09-21T23:51:08.772Z,102421.16
2022-09-21T23:53:36.545Z,102423.41
2022-09-21T23:56:04.020Z,102419.63
2022-09-21T23:58:30.475Z,102418.84
